| time (UTC) | temp F | wind direction | speed MPH | gust MPH | rain 1hr in | rain 24hr in | rain mn in | humidity % | barometer mb |
| 20260507183029 | 76 | 287 | 7.0 | 14.0 | 0.00 | 0.00 | 0.00 | 18 | 1007.3 |
| 20260507181527 | 76 | 250 | 8.0 | 13.0 | 0.00 | 0.00 | 0.00 | 17 | 1007.7 |
| 20260507180035 | 75 | 288 | 7.0 | 14.0 | 0.00 | 0.00 | 0.00 | 17 | 1007.8 |
| 20260507174526 | 74 | 252 | 7.0 | 15.0 | 0.00 | 0.00 | 0.00 | 18 | 1008.0 |
| 20260507173017 | 74 | 232 | 5.0 | 12.0 | 0.00 | 0.00 | 0.00 | 16 | 1008.2 |
| 20260507171505 | 74 | 282 | 0.0 | 7.0 | 0.00 | 0.00 | 0.00 | 17 | 1008.2 |
| 20260507170114 | 73 | 210 | 0.0 | 12.0 | 0.00 | 0.00 | 0.00 | 18 | 1008.3 |
| 20260507164611 | 72 | 262 | 2.0 | 7.0 | 0.00 | 0.00 | 0.00 | 19 | 1008.2 |
| 20260507163004 | 71 | 301 | 3.0 | 7.0 | 0.00 | 0.00 | 0.00 | 19 | 1008.3 |
| 20260507160152 | 69 | 40 | 1.0 | 4.0 | 0.00 | 0.00 | 0.00 | 25 | 1008.7 |
| 20260507154540 | 66 | 53 | 0.0 | 1.0 | 0.00 | 0.00 | 0.00 | 28 | 1008.8 |
| 20260507153039 | 65 | 96 | 0.0 | 4.0 | 0.00 | 0.00 | 0.00 | 28 | 1009.1 |
| 20260507151632 | 64 | 83 | 0.0 | 4.0 | 0.00 | 0.00 | 0.00 | 30 | 1009.1 |
| 20260507150019 | 63 | 49 | 0.0 | 0.0 | 0.00 | 0.00 | 0.00 | 31 | 1009.3 |
| 20260507144519 | 61 | 49 | 0.0 | 0.0 | 0.00 | 0.00 | 0.00 | 33 | 1009.5 |
| 20260507143012 | 59 | 11 | 0.0 | 0.0 | 0.00 | 0.00 | 0.00 | 35 | 1009.7 |
| 20260507141513 | 57 | 11 | 0.0 | 0.0 | 0.00 | 0.00 | 0.00 | 39 | 1009.8 |
| 20260507140022 | 54 | 11 | 0.0 | 0.0 | 0.00 | 0.00 | 0.00 | 42 | 1009.9 |
| 20260507134524 | 50 | 268 | 0.0 | 0.0 | 0.00 | 0.00 | 0.00 | 49 | 1009.8 |
| 20260507133009 | 47 | 267 | 0.0 | 0.0 | 0.00 | 0.00 | 0.00 | 54 | 1009.8 |
| 20260507131538 | 46 | 267 | 0.0 | 0.0 | 0.00 | 0.00 | 0.00 | 52 | 1009.6 |
| 20260507130033 | 46 | 268 | 0.0 | 0.0 | 0.00 | 0.00 | 0.00 | 49 | 1009.5 |
| 20260507124540 | 46 | 268 | 0.0 | 0.0 | 0.00 | 0.00 | 0.00 | 49 | 1009.4 |
| 20260507123139 | 46 | 267 | 0.0 | 0.0 | 0.00 | 0.00 | 0.00 | 48 | 1009.2 |
| 20260507121551 | 47 | 268 | 0.0 | 0.0 | 0.00 | 0.00 | 0.00 | 47 | 1009.2 |
| 20260507120049 | 47 | 265 | 0.0 | 0.0 | 0.00 | 0.00 | 0.00 | 45 | 1009.1 |
| 20260507114549 | 47 | 262 | 0.0 | 0.0 | 0.00 | 0.00 | 0.00 | 45 | 1009.2 |
| 20260507113147 | 47 | 259 | 0.0 | 0.0 | 0.00 | 0.00 | 0.00 | 45 | 1009.2 |
| 20260507111522 | 47 | 257 | 0.0 | 0.0 | 0.00 | 0.00 | 0.00 | 45 | 1009.4 |
| 20260507110017 | 47 | 250 | 0.0 | 0.0 | 0.00 | 0.00 | 0.00 | 44 | 1009.2 |
| 20260507104513 | 48 | 245 | 0.0 | 0.0 | 0.00 | 0.00 | 0.00 | 44 | 1009.2 |
| 20260507103011 | 48 | 250 | 0.0 | 0.0 | 0.00 | 0.00 | 0.00 | 44 | 1009.2 |
| 20260507101517 | 48 | 267 | 0.0 | 0.0 | 0.00 | 0.00 | 0.00 | 44 | 1009.2 |
| 20260507100010 | 48 | 261 | 0.0 | 0.0 | 0.00 | 0.00 | 0.00 | 44 | 1009.3 |
| 20260507094628 | 48 | 236 | 0.0 | 0.0 | 0.00 | 0.00 | 0.00 | 45 | 1009.2 |
| 20260507093020 | 48 | 266 | 0.0 | 0.0 | 0.00 | 0.00 | 0.00 | 45 | 1009.2 |
| 20260507091519 | 48 | 267 | 0.0 | 0.0 | 0.00 | 0.00 | 0.00 | 45 | 1009.3 |
| 20260507090015 | 49 | 258 | 0.0 | 0.0 | 0.00 | 0.00 | 0.00 | 45 | 1009.4 |
| 20260507084505 | 49 | 258 | 0.0 | 0.0 | 0.00 | 0.00 | 0.00 | 44 | 1009.6 |
| 20260507083004 | 49 | 258 | 0.0 | 0.0 | 0.00 | 0.00 | 0.00 | 44 | 1009.7 |
| 20260507081505 | 50 | 256 | 0.0 | 0.0 | 0.00 | 0.00 | 0.00 | 43 | 1009.8 |
| 20260507080059 | 50 | 238 | 0.0 | 0.0 | 0.00 | 0.00 | 0.00 | 43 | 1009.8 |
| 20260507074507 | 51 | 253 | 0.0 | 0.0 | 0.00 | 0.00 | 0.00 | 42 | 1009.8 |
| 20260507073101 | 52 | 254 | 0.0 | 0.0 | 0.00 | 0.00 | 0.00 | 41 | 1009.9 |
| 20260507071601 | 52 | 262 | 0.0 | 0.0 | 0.00 | 0.00 | 0.00 | 41 | 1009.9 |
| 20260507070107 | 52 | 257 | 0.0 | 0.0 | 0.00 | 0.00 | 0.00 | 40 | 1009.9 |
| 20260507064514 | 52 | 261 | 0.0 | 0.0 | 0.00 | 0.00 | 0.00 | 39 | 1009.9 |
| 20260507063013 | 52 | 263 | 0.0 | 0.0 | 0.00 | 0.00 | 0.00 | 38 | 1009.8 |
| 20260507061542 | 53 | 265 | 0.0 | 0.0 | 0.00 | 0.00 | 0.00 | 38 | 1009.7 |
| 20260507060148 | 53 | 254 | 0.0 | 0.0 | 0.00 | 0.00 | 0.00 | 37 | 1009.7 |
| 20260507054503 | 54 | 309 | 0.0 | 0.0 | 0.00 | 0.00 | 0.00 | 37 | 1009.8 |
| 20260507053100 | 56 | 309 | 0.0 | 0.0 | 0.00 | 0.00 | 0.00 | 35 | 1009.8 |
| 20260507051512 | 57 | 309 | 0.0 | 0.0 | 0.00 | 0.00 | 0.00 | 32 | 1009.8 |
| 20260507050010 | 58 | 309 | 0.0 | 0.0 | 0.00 | 0.00 | 0.00 | 32 | 1009.7 |
| 20260507044507 | 58 | 309 | 0.0 | 0.0 | 0.00 | 0.00 | 0.00 | 31 | 1009.4 |
| 20260507043003 | 58 | 265 | 0.0 | 0.0 | 0.00 | 0.00 | 0.00 | 30 | 1009.1 |
| 20260507041507 | 58 | 227 | 0.0 | 0.0 | 0.00 | 0.00 | 0.00 | 30 | 1009.1 |
| 20260507040013 | 58 | 283 | 0.0 | 0.0 | 0.00 | 0.00 | 0.00 | 31 | 1008.8 |
| 20260507034605 | 58 | 257 | 0.0 | 0.0 | 0.00 | 0.00 | 0.00 | 31 | 1008.5 |
| 20260507033056 | 59 | 263 | 0.0 | 0.0 | 0.00 | 0.00 | 0.00 | 29 | 1008.4 |
| 20260507031548 | 60 | 264 | 0.0 | 0.0 | 0.00 | 0.00 | 0.00 | 28 | 1008.3 |
| 20260507030044 | 61 | 262 | 0.0 | 0.0 | 0.00 | 0.00 | 0.00 | 27 | 1008.0 |
| 20260507024551 | 64 | 297 | 0.0 | 0.0 | 0.00 | 0.00 | 0.00 | 25 | 1007.9 |
| 20260507023034 | 68 | 351 | 0.0 | 0.0 | 0.00 | 0.00 | 0.00 | 22 | 1007.8 |
| 20260507020025 | 72 | 352 | 0.0 | 0.0 | 0.00 | 0.00 | 0.00 | 18 | 1007.6 |
| 20260507014535 | 72 | 352 | 0.0 | 0.0 | 0.00 | 0.00 | 0.00 | 16 | 1007.6 |
| 20260507013022 | 73 | 321 | 0.0 | 0.0 | 0.00 | 0.00 | 0.00 | 16 | 1007.5 |
| 20260507011601 | 73 | 337 | 0.0 | 1.0 | 0.00 | 0.00 | 0.00 | 15 | 1007.4 |
| 20260507010114 | 74 | 8 | 2.0 | 7.0 | 0.00 | 0.00 | 0.00 | 14 | 1007.4 |
| 20260507004559 | 74 | 1 | 0.0 | 4.0 | 0.00 | 0.00 | 0.00 | 15 | 1007.3 |
| 20260507003057 | 75 | 330 | 0.0 | 6.0 | 0.00 | 0.00 | 0.00 | 14 | 1007.3 |
| 20260507001520 | 74 | 359 | 0.0 | 4.0 | 0.00 | 0.00 | 0.00 | 15 | 1007.3 |
| 20260507000128 | 74 | 27 | 2.0 | 9.0 | 0.00 | 0.00 | 0.00 | 15 | 1007.3 |
| 20260506234516 | 75 | 1 | 1.0 | 6.0 | 0.00 | 0.00 | 0.00 | 16 | 1007.2 |
| 20260506233017 | 75 | 66 | 3.0 | 8.0 | 0.00 | 0.00 | 0.00 | 15 | 1007.2 |
| 20260506231525 | 75 | 329 | 1.0 | 6.0 | 0.00 | 0.00 | 0.00 | 17 | 1007.2 |
| 20260506230023 | 74 | 15 | 3.0 | 10.0 | 0.00 | 0.00 | 0.00 | 18 | 1007.5 |
| 20260506224638 | 74 | 57 | 0.0 | 7.0 | 0.00 | 0.00 | 0.00 | 17 | 1007.5 |
| 20260506223022 | 74 | 69 | 2.0 | 9.0 | 0.00 | 0.00 | 0.00 | 18 | 1007.8 |
| 20260506221548 | 75 | 1 | 2.0 | 8.0 | 0.00 | 0.00 | 0.00 | 16 | 1007.9 |
| 20260506214651 | 75 | 107 | 0.0 | 4.0 | 0.00 | 0.00 | 0.00 | 14 | 1008.2 |
| 20260506213040 | 73 | 20 | 1.0 | 6.0 | 0.00 | 0.00 | 0.00 | 13 | 1008.4 |
| 20260506211507 | 72 | 212 | 0.0 | 6.0 | 0.00 | 0.00 | 0.00 | 11 | 1008.5 |
| 20260506210012 | 72 | 1 | 3.0 | 9.0 | 0.00 | 0.00 | 0.00 | 9 | 1008.7 |
| 20260506204505 | 71 | 15 | 3.0 | 10.0 | 0.00 | 0.00 | 0.00 | 14 | 1008.7 |
| 20260506203008 | 72 | 28 | 1.0 | 5.0 | 0.00 | 0.00 | 0.00 | 18 | 1008.9 |
| 20260506201531 | 72 | 307 | 0.0 | 5.0 | 0.00 | 0.00 | 0.00 | 21 | 1009.0 |
| 20260506200152 | 70 | 316 | 0.0 | 8.0 | 0.00 | 0.00 | 0.00 | 20 | 1009.1 |
| 20260506194516 | 71 | 7 | 0.0 | 3.0 | 0.00 | 0.00 | 0.00 | 22 | 1009.3 |
| 20260506193013 | 69 | 45 | 0.0 | 6.0 | 0.00 | 0.00 | 0.00 | 25 | 1009.4 |
| 20260506190059 | 69 | 359 | 3.0 | 7.0 | 0.00 | 0.00 | 0.00 | 23 | 1009.8 |
| 20260506184557 | 68 | 44 | 0.0 | 6.0 | 0.00 | 0.00 | 0.00 | 25 | 1009.8 |
| 20260506184516 | 68 | 350 | 0.0 | 5.0 | 0.00 | 0.00 | 0.00 | 24 | 1009.8 |